M/V Manukai — WRGD — position and weather

sailwx.info

Track history (hours):
 
Tides and Currents Weather Stations Pressure Air Temp Water Temp Dewpoint Dewpoint Depression Visibility Wind Speed Wind Dir Waves Ship Positions

M/V Manukai

Owner: Matson Navigation Company, Inc., Oakland, CA. More information available from US FCC via Universal Licensing System and Coast Guard Vessel Documentation Center.

Last reported at 2017-Dec-10 18:15 UTC. Time now 2017-Dec-13 11:21 UTC.
Position N 33°40' W 118°12'.

Type: Ship (hazmat cat A). MMSI: 369296000.

Date/timePositionNaut miles runAvg speedWind from/ knotsBaromVisibWave heightAir tempDewpointWater temp
2017-Dec-10 18:15N 33°40' W 118°12'510.7
2017-Dec-10 17:47N 33°36' W 118°17'310.2
2017-Dec-10 17:29N 33°36' W 118°21'510.9
2017-Dec-10 17:00N 33°37' W 118°27'611.1
2017-Dec-10 16:30N 33°37' W 118°33'510.2
2017-Dec-10 16:00N 33°38' W 118°39'713.4
2017-Dec-10 15:30N 33°39' W 118°47'1019.9
2017-Dec-10 15:00N 33°39' W 118°59'1020.5
2017-Dec-10 14:30N 33°40' W 119°12'1020.1
2017-Dec-10 14:00N 33°41' W 119°24'1019.8
2017-Dec-10 13:30N 33°42' W 119°36'1019.6
2017-Dec-10 13:00N 33°43' W 119°47'919.2
2017-Dec-10 12:30N 33°43' W 119°59'1119.1
2017-Dec-10 11:57N 33°44' W 120°11'919.7
2017-Dec-10 11:30N 33°46' W 120°22'1120.1
2017-Dec-10 10:58N 33°49' W 120°34'920.1
2017-Dec-10 10:30N 33°52' W 120°45'1020.1
2017-Dec-10 10:00N 33°55' W 120°56'1020.3
2017-Dec-10 09:30N 33°58' W 121°08'1020.4
2017-Dec-10 09:00N 34°01' W 121°20'1120.6
2017-Dec-10 08:29N 34°04' W 121°32'1020.8
2017-Dec-10 07:59N 34°08' W 121°44'1120.6
2017-Dec-10 07:27N 34°11' W 121°57'920.8
2017-Dec-10 07:00N 34°13' W 122°07'2520.4
2017-Dec-10 05:46N 34°21' W 122°37'520.4
2017-Dec-10 05:30N 34°22' W 122°43'1020.0
2017-Dec-10 05:00N 34°26' W 122°54'1020.0
2017-Dec-10 04:30N 34°29' W 123°06'1019.8
2017-Dec-10 04:00N 34°32' W 123°17'1020.1
2017-Dec-10 03:30N 34°35' W 123°29'1020.6
2017-Dec-10 03:00N 34°38' W 123°41'1020.5
2017-Dec-10 02:30N 34°41' W 123°53'1020.1
2017-Dec-10 02:00N 34°44' W 124°04'1019.8
2017-Dec-10 01:30N 34°47' W 124°16'1019.8
2017-Dec-10 01:00N 34°50' W 124°27'1119.9
2017-Dec-10 00:29N 34°53' W 124°40'919.9
2017-Dec-10 00:00N 34°56' W 124°51'1020.1
2017-Dec-09 23:30N 34°59' W 125°02'1119.8
2017-Dec-09 22:56N 35°02' W 125°16'1019.8
2017-Dec-09 22:26N 35°05' W 125°27'1220.2
2017-Dec-09 21:50N 35°09' W 125°41'720.2
2017-Dec-09 21:29N 35°12' W 125°49'1020.6
2017-Dec-09 21:00N 35°18' W 125°58'1020.7
2017-Dec-09 20:30N 35°25' W 126°08'918.7
2017-Dec-09 20:00N 35°30' W 126°17'1019.1
2017-Dec-09 19:30N 35°36' W 126°26'1122.7
2017-Dec-09 19:00N 35°42' W 126°39'1223.7
2017-Dec-09 18:30N 35°45' W 126°52'19122.5
2017-Dec-09 10:01N 36°46' W 130°37'122.3
2017-Dec-09 09:59N 36°46' W 130°38'1122.4
2017-Dec-09 09:30N 36°49' W 130°51'  
2017-Dec-02 02:42N 41°38' E 141°39'524.7
2017-Dec-02 02:30N 41°38' E 141°33'1224.4
2017-Dec-02 02:00N 41°38' E 141°17'1325.1
2017-Dec-02 01:30N 41°38' E 141°00'1223.7
2017-Dec-02 01:01N 41°34' E 140°45'1325.2
2017-Dec-02 00:30N 41°26' E 140°32'1325.7
2017-Dec-02 00:00N 41°19' E 140°18'64622.5
2017-Nov-30 19:13N 34°18' E 129°57'  
Track history (hours):
 
Tides and Currents Weather Stations Pressure Air Temp Water Temp Dewpoint Dewpoint Depression Visibility Wind Speed Wind Dir Waves Ship Positions

M/V Manukai

Owner: Matson Navigation Company, Inc., Oakland, CA. More information available from US FCC via Universal Licensing System and Coast Guard Vessel Documentation Center.

Last reported at 2017-Dec-10 18:15 UTC. Time now 2017-Dec-13 11:21 UTC.
Position N 33°40' W 118°12'.

Type: Ship (hazmat cat A). MMSI: 369296000.

Date/timePositionNaut miles runAvg speedWind from/ knotsBaromVisibWave heightAir tempDewpointWater temp
2017-Dec-10 18:15N 33°40' W 118°12'510.7
2017-Dec-10 17:47N 33°36' W 118°17'310.2
2017-Dec-10 17:29N 33°36' W 118°21'510.9
2017-Dec-10 17:00N 33°37' W 118°27'611.1
2017-Dec-10 16:30N 33°37' W 118°33'510.2
2017-Dec-10 16:00N 33°38' W 118°39'713.4
2017-Dec-10 15:30N 33°39' W 118°47'1019.9
2017-Dec-10 15:00N 33°39' W 118°59'1020.5
2017-Dec-10 14:30N 33°40' W 119°12'1020.1
2017-Dec-10 14:00N 33°41' W 119°24'1019.8
2017-Dec-10 13:30N 33°42' W 119°36'1019.6
2017-Dec-10 13:00N 33°43' W 119°47'919.2
2017-Dec-10 12:30N 33°43' W 119°59'1119.1
2017-Dec-10 11:57N 33°44' W 120°11'919.7
2017-Dec-10 11:30N 33°46' W 120°22'1120.1
2017-Dec-10 10:58N 33°49' W 120°34'920.1
2017-Dec-10 10:30N 33°52' W 120°45'1020.1
2017-Dec-10 10:00N 33°55' W 120°56'1020.3
2017-Dec-10 09:30N 33°58' W 121°08'1020.4
2017-Dec-10 09:00N 34°01' W 121°20'1120.6
2017-Dec-10 08:29N 34°04' W 121°32'1020.8
2017-Dec-10 07:59N 34°08' W 121°44'1120.6
2017-Dec-10 07:27N 34°11' W 121°57'920.8
2017-Dec-10 07:00N 34°13' W 122°07'2520.4
2017-Dec-10 05:46N 34°21' W 122°37'520.4
2017-Dec-10 05:30N 34°22' W 122°43'1020.0
2017-Dec-10 05:00N 34°26' W 122°54'1020.0
2017-Dec-10 04:30N 34°29' W 123°06'1019.8
2017-Dec-10 04:00N 34°32' W 123°17'1020.1
2017-Dec-10 03:30N 34°35' W 123°29'1020.6
2017-Dec-10 03:00N 34°38' W 123°41'1020.5
2017-Dec-10 02:30N 34°41' W 123°53'1020.1
2017-Dec-10 02:00N 34°44' W 124°04'1019.8
2017-Dec-10 01:30N 34°47' W 124°16'1019.8
2017-Dec-10 01:00N 34°50' W 124°27'1119.9
2017-Dec-10 00:29N 34°53' W 124°40'919.9
2017-Dec-10 00:00N 34°56' W 124°51'1020.1
2017-Dec-09 23:30N 34°59' W 125°02'1119.8
2017-Dec-09 22:56N 35°02' W 125°16'1019.8
2017-Dec-09 22:26N 35°05' W 125°27'1220.2
2017-Dec-09 21:50N 35°09' W 125°41'720.2
2017-Dec-09 21:29N 35°12' W 125°49'1020.6
2017-Dec-09 21:00N 35°18' W 125°58'1020.7
2017-Dec-09 20:30N 35°25' W 126°08'918.7
2017-Dec-09 20:00N 35°30' W 126°17'1019.1
2017-Dec-09 19:30N 35°36' W 126°26'1122.7
2017-Dec-09 19:00N 35°42' W 126°39'1223.7
2017-Dec-09 18:30N 35°45' W 126°52'19122.5
2017-Dec-09 10:01N 36°46' W 130°37'122.3
2017-Dec-09 09:59N 36°46' W 130°38'1122.4
2017-Dec-09 09:30N 36°49' W 130°51'  
2017-Dec-02 02:42N 41°38' E 141°39'524.7
2017-Dec-02 02:30N 41°38' E 141°33'1224.4
2017-Dec-02 02:00N 41°38' E 141°17'1325.1
2017-Dec-02 01:30N 41°38' E 141°00'1223.7
2017-Dec-02 01:01N 41°34' E 140°45'1325.2
2017-Dec-02 00:30N 41°26' E 140°32'1325.7
2017-Dec-02 00:00N 41°19' E 140°18'64622.5
2017-Nov-30 19:13N 34°18' E 129°57'  

Dump ship's entire track history